KCDWKLDJ

Guest
Details From KCDW - Essex County
To KLDJ - LINDEN
Flight Number -
Tags generated
Created
Modified
Stats Distance 20 nm / 37 km
Max Altitude 2,700 ft / 823 m
Waypoints 3
Social Downloads 1
Likes 0
Share VATSIM

Download

Looking for another format? Having issues loading an existing format? Contact us
Advertisement - Login to hide

Notes

Basic altitude profile: - Ascent Rate: 1000ft/min - Ascent Speed: 120kts - Cruise Altitude: 3000ft - Cruise Speed: 140kts - Descent Rate: 500ft/min - Descent Speed: 120kts

Route

KCDW JERSY KLDJ

ID Type Via Altitude Latitude Longitude Leg Dist Tot Dist Heading (true) Name
O KCDW APT - 0 ft / 0 m 40.87547˚ -74.28122˚ - 0 nm - Essex County
JERSY FIX - 2,700 ft / 823 m 40.79139˚ -74.39944˚ 7 nm 7 nm 227° / 227° -
O KLDJ APT - 0 ft / 0 m 40.61745˚ -74.24459˚ 12 nm 19 nm 146° / 146° LINDEN

Altitude Profile

Advertisement - Login to hide

KCDW

Details ICAO KCDW (CDW)
Name Essex County
Region United States
Timezone America/New_York (UTC-5.0)
Stats Elevation 172 ft / 52 m (AMSL)
Location 40.875473° -74.281219°
Runways 2
Magnetic Variation 12.796° W

METAR

KCDW 180653Z AUTO 06003KT 10SM OVC015 01/M04 A3019 RMK AO2 SLP229 T00061039 TSNO

Decode

TAF

Not found

Departure Runways

ID Width Length Bearing (true) Bearing (mag) Surface Threshold Offset Overrun Length
04 82 ft / 25 m 4,580 ft / 1,396 m 29.48° 42.28° Asphalt 381 ft / 116 m 0 ft / 0 m
10 82 ft / 25 m 3,701 ft / 1,128 m 83.19° 95.99° Asphalt 164 ft / 50 m 0 ft / 0 m
22 82 ft / 25 m 4,580 ft / 1,396 m 209.49° 222.29° Asphalt 161 ft / 49 m 0 ft / 0 m
28 82 ft / 25 m 3,701 ft / 1,128 m 263.20° 276.00° Asphalt 820 ft / 250 m 0 ft / 0 m

KLDJ

Details ICAO KLDJ (LDJ)
Name LINDEN
Region United States
Timezone America/New_York (UTC-5.0)
Stats Elevation 23 ft / 7 m (AMSL)
Location 40.617449° -74.244595°
Runways 1
Magnetic Variation 12.754° W

METAR

KLDJ 180735Z AUTO 00000KT 5SM RA SCT018 BKN024 OVC048 02/M01 A3019 RMK AO2 P0001 T00161010

Decode

TAF

Not found

Destination Runways

ID Width Length Bearing (true) Bearing (mag) Surface Threshold Offset Overrun Length
09 98 ft / 30 m 4,131 ft / 1,259 m 75.60° 88.35° Asphalt 459 ft / 140 m 200 ft / 61 m
27 98 ft / 30 m 4,131 ft / 1,259 m 255.61° 268.36° Asphalt 545 ft / 166 m 200 ft / 61 m